Odense, Denmark
Current Conditions -  °F | °C
As of 9:51 PM on Tuesday 21 Oct 2014 (Local Time) from EKSB Reporting Station
Clear Clear  
Wind Chill: 54°   Ceiling: Unl
Heat Index: 54°   Visibility: 6mi
Dew Point: 50°   Wind: 7mph
Humidity: 88%   Direction: 240°WSW
Pressure: 29.29"   Gusts: NA
Location:  55.4°N, 10.39°E
Report Text: EKSB 211951Z 24006KT 190V260 CAVOK 12/10 Q0992
Loading
Personal Weather Stations






























Interactive Weather Map
Tropical Storm Tracking
New forecast layout! Learn more

10-Day Weather Forecast

Advertisements
Track Severe Weather on mobile